createdAt,value
2022-09-11T00:01:18.376Z,100244.78
2022-09-11T00:03:48.205Z,100291.78
2022-09-11T00:06:28.893Z,100292.66
2022-09-11T00:09:01.645Z,100292.56
2022-09-11T00:11:31.507Z,100272.63
2022-09-11T00:14:00.240Z,100258.84
2022-09-11T00:16:30.990Z,100299.28
2022-09-11T00:19:01.171Z,100301.28
2022-09-11T00:21:29.985Z,100306.16
2022-09-11T00:24:00.123Z,100275.09
2022-09-11T00:26:28.608Z,100300.41
2022-09-11T00:28:57.269Z,100306.06
2022-09-11T00:31:28.100Z,100305.91
2022-09-11T00:33:57.022Z,100292.50
2022-09-11T00:36:26.537Z,100288.41
2022-09-11T00:38:55.042Z,100233.81
2022-09-11T00:41:26.642Z,100244.78
2022-09-11T00:44:02.333Z,100279.44
2022-09-11T00:46:41.372Z,100316.84
2022-09-11T00:49:19.111Z,100221.28
2022-09-11T00:51:53.391Z,100313.97
2022-09-11T00:54:28.574Z,100295.78
2022-09-11T00:57:00.050Z,100327.81
2022-09-11T00:59:30.655Z,100325.22
2022-09-11T01:01:59.089Z,100320.66
2022-09-11T01:04:27.916Z,100286.16
2022-09-11T01:06:58.697Z,100325.34
2022-09-11T01:09:29.123Z,100326.16
2022-09-11T01:12:04.854Z,100316.81
2022-09-11T01:14:41.946Z,100326.19
2022-09-11T01:17:22.624Z,100341.13
2022-09-11T01:20:15.632Z,100315.81
2022-09-11T01:22:58.804Z,100301.44
2022-09-11T01:25:32.678Z,100343.53
2022-09-11T01:28:06.381Z,100329.78
2022-09-11T01:30:39.170Z,100349.28
2022-09-11T01:33:14.064Z,100293.56
2022-09-11T01:35:53.038Z,100345.16
2022-09-11T01:38:29.289Z,100351.59
2022-09-11T01:41:01.726Z,100345.09
2022-09-11T01:43:34.510Z,100330.69
2022-09-11T01:46:07.621Z,100300.97
2022-09-11T01:48:40.877Z,100309.06
2022-09-11T01:51:15.493Z,100332.06
2022-09-11T01:53:50.181Z,100333.59
2022-09-11T01:56:23.501Z,100363.13
2022-09-11T01:58:59.701Z,100367.63
2022-09-11T02:01:31.486Z,100362.75
2022-09-11T02:04:07.353Z,100365.94
2022-09-11T02:06:42.538Z,100376.53
2022-09-11T02:09:15.317Z,100344.09
2022-09-11T02:11:46.934Z,100376.72
2022-09-11T02:14:21.825Z,100380.03
2022-09-11T02:16:52.171Z,100186.00
2022-09-11T02:19:21.667Z,100290.16
2022-09-11T02:21:50.839Z,100371.88
2022-09-11T02:24:20.170Z,100377.88
2022-09-11T02:26:52.582Z,100363.84
2022-09-11T02:29:22.711Z,100378.13
2022-09-11T02:31:52.270Z,100307.53
2022-09-11T02:34:26.900Z,100385.44
2022-09-11T02:37:14.729Z,100382.47
2022-09-11T02:40:04.299Z,100377.53
2022-09-11T02:42:44.661Z,100388.75
2022-09-11T02:45:25.171Z,100377.00
2022-09-11T02:48:02.793Z,100376.66
2022-09-11T02:50:40.354Z,100397.09
2022-09-11T02:53:13.987Z,100389.25
2022-09-11T02:55:57.788Z,100366.34
2022-09-11T02:58:28.947Z,100351.84
2022-09-11T03:00:59.747Z,100397.97
2022-09-11T03:03:28.013Z,100407.91
2022-09-11T03:05:56.306Z,100382.13
2022-09-11T03:08:24.645Z,100406.94
2022-09-11T03:10:52.584Z,100400.31
2022-09-11T03:13:20.529Z,100421.94
2022-09-11T03:15:48.658Z,100375.53
2022-09-11T03:18:18.407Z,100413.81
2022-09-11T03:20:47.046Z,100415.06
2022-09-11T03:23:15.071Z,100383.63
2022-09-11T03:25:43.196Z,100369.16
2022-09-11T03:28:12.559Z,100402.59
2022-09-11T03:30:41.488Z,100410.84
2022-09-11T03:33:11.338Z,100426.78
2022-09-11T03:35:40.735Z,100416.09
2022-09-11T03:38:09.302Z,100420.63
2022-09-11T03:40:39.173Z,100389.19
2022-09-11T03:43:07.144Z,100394.13
2022-09-11T03:45:35.186Z,100382.72
2022-09-11T03:48:03.557Z,100346.06
2022-09-11T03:50:32.959Z,100432.13
2022-09-11T03:53:02.218Z,100424.81
2022-09-11T03:55:31.744Z,100428.28
2022-09-11T03:58:01.105Z,100435.25
2022-09-11T04:00:29.523Z,100404.41
2022-09-11T04:02:58.416Z,100425.31
2022-09-11T04:05:33.844Z,100423.41
2022-09-11T04:08:04.376Z,100423.94
2022-09-11T04:10:33.085Z,100426.88
2022-09-11T04:13:01.665Z,100421.16
2022-09-11T04:15:31.026Z,100411.47
2022-09-11T04:18:03.347Z,100416.78
2022-09-11T04:20:34.507Z,100428.19
2022-09-11T04:23:04.610Z,100430.78
2022-09-11T04:25:32.676Z,100423.59
2022-09-11T04:28:03.066Z,100430.72
2022-09-11T04:30:30.994Z,100440.72
2022-09-11T04:32:59.046Z,100434.47
2022-09-11T04:35:27.193Z,100413.50
2022-09-11T04:37:58.433Z,100389.91
2022-09-11T04:40:27.774Z,100394.25
2022-09-11T04:42:55.708Z,100440.41
2022-09-11T04:45:24.155Z,100438.63
2022-09-11T04:47:56.058Z,100435.00
2022-09-11T04:50:23.891Z,100430.47
2022-09-11T04:53:11.062Z,100447.94
2022-09-11T04:55:40.498Z,100355.66
2022-09-11T04:58:10.118Z,100455.63
2022-09-11T05:00:38.273Z,100460.63
2022-09-11T05:03:06.293Z,100454.41
2022-09-11T05:05:34.284Z,100464.94
2022-09-11T05:08:03.946Z,100449.19
2022-09-11T05:10:32.500Z,100464.69
2022-09-11T05:13:01.759Z,100472.63
2022-09-11T05:15:31.809Z,100476.53
2022-09-11T05:18:00.613Z,100479.88
2022-09-11T05:20:31.775Z,100459.03
2022-09-11T05:22:59.955Z,100455.63
2022-09-11T05:25:31.847Z,100442.72
2022-09-11T05:28:01.336Z,100403.44
2022-09-11T05:30:30.237Z,100488.75
2022-09-11T05:32:58.667Z,100468.88
2022-09-11T05:35:32.150Z,100485.25
2022-09-11T05:38:00.796Z,100411.91
2022-09-11T05:40:28.955Z,100491.81
2022-09-11T05:42:57.869Z,100494.41
2022-09-11T05:45:27.292Z,100466.34
2022-09-11T05:47:56.017Z,100469.22
2022-09-11T05:50:24.426Z,100506.78
2022-09-11T05:52:52.481Z,100492.84
2022-09-11T05:55:20.402Z,100469.41
2022-09-11T05:57:48.593Z,100509.94
2022-09-11T06:00:16.856Z,100516.28
2022-09-11T06:02:54.303Z,100522.19
2022-09-11T06:05:24.624Z,100520.56
2022-09-11T06:07:52.890Z,100528.09
2022-09-11T06:10:20.797Z,100532.63
2022-09-11T06:12:48.811Z,100520.25
2022-09-11T06:15:42.879Z,100538.03
2022-09-11T06:18:07.195Z,100506.31
2022-09-11T06:20:35.413Z,100533.56
2022-09-11T06:23:08.615Z,100542.72
2022-09-11T06:25:37.645Z,100520.19
2022-09-11T06:28:05.690Z,100536.56
2022-09-11T06:30:34.973Z,100522.09
2022-09-11T06:33:03.719Z,100508.69
2022-09-11T06:35:33.282Z,100536.53
2022-09-11T06:38:02.971Z,100543.75
2022-09-11T06:40:31.580Z,100552.41
2022-09-11T06:43:00.368Z,100550.81
2022-09-11T06:45:31.133Z,100559.09
2022-09-11T06:47:58.941Z,100554.47
2022-09-11T06:50:30.040Z,100558.81
2022-09-11T06:53:08.276Z,100559.72
2022-09-11T06:55:40.220Z,100560.31
2022-09-11T06:58:11.840Z,100546.34
2022-09-11T07:00:40.566Z,100489.25
2022-09-11T07:03:11.481Z,100550.56
2022-09-11T07:05:39.594Z,100493.06
2022-09-11T07:08:09.823Z,100567.13
2022-09-11T07:10:38.423Z,100568.00
2022-09-11T07:13:06.369Z,100552.69
2022-09-11T07:15:34.704Z,100552.69
2022-09-11T07:18:03.750Z,100572.13
2022-09-11T07:20:32.195Z,100575.78
2022-09-11T07:23:00.114Z,100522.75
2022-09-11T07:25:32.213Z,100588.25
2022-09-11T07:28:00.565Z,100577.63
2022-09-11T07:30:28.802Z,100595.63
2022-09-11T07:32:58.067Z,100573.47
2022-09-11T07:35:26.030Z,100601.34
2022-09-11T07:37:54.747Z,100609.91
2022-09-11T07:40:26.621Z,100611.91
2022-09-11T07:42:56.136Z,100566.63
2022-09-11T07:45:24.437Z,100572.72
2022-09-11T07:47:53.463Z,100575.94
2022-09-11T07:50:24.295Z,100607.84
2022-09-11T07:52:52.960Z,100606.44
2022-09-11T07:55:22.275Z,100633.38
2022-09-11T07:57:52.083Z,100615.72
2022-09-11T08:00:22.457Z,100570.94
2022-09-11T08:02:58.847Z,100634.22
2022-09-11T08:05:33.760Z,100638.41
2022-09-11T08:08:02.308Z,100643.09
2022-09-11T08:10:31.079Z,100604.75
2022-09-11T08:13:00.525Z,100644.44
2022-09-11T08:15:35.661Z,100648.34
2022-09-11T08:18:06.341Z,100648.72
2022-09-11T08:20:34.531Z,100648.00
2022-09-11T08:23:02.581Z,100665.16
2022-09-11T08:25:31.199Z,100655.50
2022-09-11T08:28:01.498Z,100669.59
2022-09-11T08:30:29.813Z,100664.13
2022-09-11T08:32:59.532Z,100654.88
2022-09-11T08:35:28.615Z,100667.25
2022-09-11T08:37:56.691Z,100675.44
2022-09-11T08:40:24.871Z,100568.63
2022-09-11T08:42:58.984Z,100690.97
2022-09-11T08:45:32.280Z,100684.13
2022-09-11T08:48:03.176Z,100594.50
2022-09-11T08:50:36.065Z,100685.50
2022-09-11T08:53:07.762Z,100667.25
2022-09-11T08:55:43.892Z,100659.78
2022-09-11T08:58:22.220Z,100663.38
2022-09-11T09:00:56.104Z,100577.34
2022-09-11T09:03:37.676Z,100681.38
2022-09-11T09:06:34.736Z,100617.47
2022-09-11T09:09:13.702Z,100606.56
2022-09-11T09:11:51.559Z,100676.09
2022-09-11T09:14:45.680Z,100687.50
2022-09-11T09:17:19.349Z,100695.69
2022-09-11T09:19:57.506Z,100640.59
2022-09-11T09:22:35.505Z,100682.72
2022-09-11T09:25:10.831Z,100663.53
2022-09-11T09:27:43.539Z,100700.66
2022-09-11T09:30:17.636Z,100627.50
2022-09-11T09:32:50.925Z,100696.81
2022-09-11T09:35:24.477Z,100698.28
2022-09-11T09:37:54.302Z,100689.94
2022-09-11T09:40:25.568Z,100709.38
2022-09-11T09:43:12.512Z,100710.69
2022-09-11T09:45:49.348Z,100710.50
2022-09-11T09:48:17.567Z,100689.34
2022-09-11T09:50:47.107Z,100714.09
2022-09-11T09:53:33.948Z,100668.84
2022-09-11T09:56:03.130Z,100718.56
2022-09-11T09:58:35.644Z,100713.91
2022-09-11T10:01:03.588Z,100710.78
2022-09-11T10:03:31.488Z,100715.63
2022-09-11T10:06:00.859Z,100699.75
2022-09-11T10:08:33.665Z,100712.53
2022-09-11T10:11:03.957Z,100698.78
2022-09-11T10:13:33.749Z,100661.22
2022-09-11T10:16:04.500Z,100684.47
2022-09-11T10:18:37.753Z,100716.69
2022-09-11T10:21:29.373Z,100721.22
2022-09-11T10:23:59.299Z,100719.72
2022-09-11T10:26:32.689Z,100623.47
2022-09-11T10:29:10.333Z,100686.53
2022-09-11T10:31:41.995Z,100705.63
2022-09-11T10:34:19.130Z,100723.53
2022-09-11T10:36:56.262Z,100622.47
2022-09-11T10:39:27.506Z,100699.25
2022-09-11T10:41:59.667Z,100721.84
2022-09-11T10:44:30.667Z,100693.97
2022-09-11T10:47:06.625Z,100721.44
2022-09-11T10:49:34.972Z,100727.16
2022-09-11T10:52:19.265Z,100664.00
2022-09-11T10:55:00.138Z,100717.09
2022-09-11T10:57:33.586Z,100738.59
2022-09-11T11:00:08.981Z,100686.66
2022-09-11T11:02:40.897Z,100739.44
2022-09-11T11:05:17.070Z,100737.59
2022-09-11T11:08:02.078Z,100726.38
2022-09-11T11:10:42.674Z,100733.59
2022-09-11T11:13:32.846Z,100642.31
2022-09-11T11:16:11.158Z,100726.41
2022-09-11T11:18:55.007Z,100739.28
2022-09-11T11:21:34.315Z,100730.66
2022-09-11T11:24:26.604Z,100741.38
2022-09-11T11:27:19.786Z,100711.56
2022-09-11T11:30:04.666Z,100736.03
2022-09-11T11:32:51.503Z,100739.16
2022-09-11T11:35:24.034Z,100734.88
2022-09-11T11:37:59.856Z,100743.78
2022-09-11T11:40:34.543Z,100735.66
2022-09-11T11:43:06.459Z,100742.19
2022-09-11T11:45:40.392Z,100749.16
2022-09-11T11:48:14.050Z,100750.91
2022-09-11T11:50:45.305Z,100756.13
2022-09-11T11:53:21.028Z,100703.47
2022-09-11T11:55:59.760Z,100754.69
2022-09-11T11:58:38.756Z,100738.63
2022-09-11T12:01:14.960Z,100756.78
2022-09-11T12:03:51.850Z,100756.69
2022-09-11T12:06:20.464Z,100682.84
2022-09-11T12:08:49.854Z,100736.56
2022-09-11T12:11:28.310Z,100665.25
2022-09-11T12:13:56.476Z,100735.63
2022-09-11T12:16:29.181Z,100676.22
2022-09-11T12:19:07.747Z,100707.88
2022-09-11T12:21:38.531Z,100751.59
2022-09-11T12:24:17.562Z,100757.81
2022-09-11T12:26:47.347Z,100744.22
2022-09-11T12:29:53.846Z,100743.06
2022-09-11T12:32:29.143Z,100745.28
2022-09-11T12:35:02.646Z,100748.47
2022-09-11T12:37:38.643Z,100738.16
2022-09-11T12:40:18.676Z,100670.38
2022-09-11T12:42:57.257Z,100746.41
2022-09-11T12:45:37.203Z,100750.16
2022-09-11T12:48:12.059Z,100741.56
2022-09-11T12:50:40.997Z,100702.66
2022-09-11T12:53:18.926Z,100736.50
2022-09-11T12:55:58.364Z,100721.00
2022-09-11T12:58:38.596Z,100732.31
2022-09-11T13:01:13.250Z,100741.22
2022-09-11T13:03:50.811Z,100731.09
2022-09-11T13:06:19.169Z,100715.34
2022-09-11T13:08:51.059Z,100700.25
2022-09-11T13:11:40.625Z,100733.19
2022-09-11T13:14:52.655Z,100725.66
2022-09-11T13:17:28.535Z,100700.56
2022-09-11T13:20:19.287Z,100717.09
2022-09-11T13:22:48.951Z,100716.59
2022-09-11T13:25:19.150Z,100703.16
2022-09-11T13:27:49.849Z,100710.34
2022-09-11T13:30:21.665Z,100708.53
2022-09-11T13:32:52.208Z,100616.66
2022-09-11T13:35:27.130Z,100702.28
2022-09-11T13:37:59.595Z,100696.75
2022-09-11T13:40:31.735Z,100684.25
2022-09-11T13:43:01.481Z,100681.66
2022-09-11T13:45:31.092Z,100609.69
2022-09-11T13:47:59.482Z,100692.09
2022-09-11T13:50:27.593Z,100633.59
2022-09-11T13:52:56.142Z,100571.44
2022-09-11T13:55:27.170Z,100686.84
2022-09-11T13:57:58.667Z,100630.97
2022-09-11T14:00:45.528Z,100681.78
2022-09-11T14:03:20.425Z,100616.22
2022-09-11T14:05:55.107Z,100682.53
2022-09-11T14:08:34.414Z,100672.09
2022-09-11T14:11:10.934Z,100681.22
2022-09-11T14:13:45.243Z,100642.31
2022-09-11T14:16:24.178Z,100647.09
2022-09-11T14:18:56.712Z,100664.56
2022-09-11T14:21:31.491Z,100628.28
2022-09-11T14:24:00.182Z,100669.81
2022-09-11T14:26:42.082Z,100673.19
2022-09-11T14:29:24.482Z,100668.59
2022-09-11T14:31:55.726Z,100659.03
2022-09-11T14:34:27.697Z,100672.84
2022-09-11T14:36:59.855Z,100672.09
2022-09-11T14:39:34.497Z,100673.03
2022-09-11T14:42:03.244Z,100672.72
2022-09-11T14:44:32.773Z,100616.31
2022-09-11T14:47:02.558Z,100668.28
2022-09-11T14:49:30.711Z,100667.97
2022-09-11T14:52:00.558Z,100659.38
2022-09-11T14:54:31.774Z,100659.69
2022-09-11T14:56:59.965Z,100660.59
2022-09-11T14:59:29.675Z,100667.75
2022-09-11T15:01:58.995Z,100658.38
2022-09-11T15:04:29.623Z,100657.03
2022-09-11T15:06:59.894Z,100651.59
2022-09-11T15:09:27.883Z,100658.00
2022-09-11T15:11:56.203Z,100649.00
2022-09-11T15:14:51.932Z,100648.38
2022-09-11T15:17:16.407Z,100650.97
2022-09-11T15:19:47.151Z,100632.16
2022-09-11T15:22:15.112Z,100489.88
2022-09-11T15:24:43.299Z,100562.53
2022-09-11T15:27:11.864Z,100613.59
2022-09-11T15:29:40.647Z,100601.00
2022-09-11T15:32:09.800Z,100618.59
2022-09-11T15:34:39.847Z,100613.59
2022-09-11T15:37:09.753Z,100611.53
2022-09-11T15:39:37.935Z,100630.66
2022-09-11T15:42:07.581Z,100601.81
2022-09-11T15:44:37.517Z,100614.00
2022-09-11T15:47:06.247Z,100590.00
2022-09-11T15:49:34.673Z,100460.97
2022-09-11T15:52:02.945Z,100623.09
2022-09-11T15:54:32.332Z,100617.13
2022-09-11T15:57:00.195Z,100522.75
2022-09-11T15:59:28.557Z,100611.03
2022-09-11T16:01:56.655Z,100619.56
2022-09-11T16:04:28.231Z,100619.47
2022-09-11T16:06:56.275Z,100602.38
2022-09-11T16:09:26.797Z,100615.41
2022-09-11T16:11:57.040Z,100621.09
2022-09-11T16:14:27.320Z,100620.44
2022-09-11T16:16:58.290Z,100621.09
2022-09-11T16:19:28.322Z,100618.94
2022-09-11T16:21:57.784Z,100583.63
2022-09-11T16:24:26.517Z,100572.00
2022-09-11T16:26:56.409Z,100612.28
2022-09-11T16:29:25.664Z,100576.81
2022-09-11T16:31:54.959Z,100577.72
2022-09-11T16:34:23.341Z,100607.41
2022-09-11T16:36:52.254Z,100600.63
2022-09-11T16:39:20.583Z,100570.56
2022-09-11T16:41:48.648Z,100414.03
2022-09-11T16:44:18.395Z,100527.84
2022-09-11T16:46:46.997Z,100603.06
2022-09-11T16:49:17.388Z,100582.50
2022-09-11T16:51:47.300Z,100601.28
2022-09-11T16:54:16.418Z,100474.78
2022-09-11T16:56:46.150Z,100599.56
2022-09-11T16:59:15.628Z,100431.31
2022-09-11T17:01:45.682Z,100598.41
2022-09-11T17:04:13.468Z,100594.59
2022-09-11T17:06:41.612Z,100596.22
2022-09-11T17:09:09.405Z,100581.53
2022-09-11T17:11:37.593Z,100591.44
2022-09-11T17:14:05.662Z,100569.69
2022-09-11T17:16:35.723Z,100429.81
2022-09-11T17:19:06.226Z,100488.34
2022-09-11T17:21:36.175Z,100596.06
2022-09-11T17:24:05.992Z,100596.19
2022-09-11T17:26:34.706Z,100574.13
2022-09-11T17:29:03.698Z,100553.66
2022-09-11T17:31:32.400Z,100602.16
2022-09-11T17:34:00.422Z,100574.97
2022-09-11T17:36:29.832Z,100597.75
2022-09-11T17:38:59.491Z,100601.91
2022-09-11T17:41:27.552Z,100524.72
2022-09-11T17:43:55.526Z,100579.22
2022-09-11T17:46:25.268Z,100595.97
2022-09-11T17:48:53.329Z,100597.53
2022-09-11T17:51:24.159Z,100575.56
2022-09-11T17:53:55.537Z,100575.38
2022-09-11T17:56:26.131Z,100608.44
2022-09-11T17:58:56.232Z,100579.25
2022-09-11T18:01:25.103Z,100519.28
2022-09-11T18:03:54.730Z,100521.78
2022-09-11T18:06:28.438Z,100605.56
2022-09-11T18:09:01.673Z,100613.84
2022-09-11T18:11:30.808Z,100604.28
2022-09-11T18:14:00.443Z,100613.91
2022-09-11T18:16:28.544Z,100617.09
2022-09-11T18:18:56.755Z,100620.03
2022-09-11T18:21:25.808Z,100591.97
2022-09-11T18:23:54.723Z,100610.84
2022-09-11T18:26:26.138Z,100622.28
2022-09-11T18:28:57.678Z,100617.72
2022-09-11T18:31:30.160Z,100619.97
2022-09-11T18:34:00.455Z,100622.44
2022-09-11T18:36:29.778Z,100629.25
2022-09-11T18:39:01.044Z,100626.81
2022-09-11T18:41:34.927Z,100610.41
2022-09-11T18:44:06.427Z,100639.72
2022-09-11T18:46:34.505Z,100640.59
2022-09-11T18:49:03.381Z,100639.69
2022-09-11T18:51:31.546Z,100581.56
2022-09-11T18:54:00.106Z,100649.75
2022-09-11T18:56:32.345Z,100655.53
2022-09-11T18:59:01.217Z,100652.75
2022-09-11T19:01:32.699Z,100632.03
2022-09-11T19:04:01.094Z,100655.00
2022-09-11T19:06:29.866Z,100595.28
2022-09-11T19:08:57.877Z,100658.88
2022-09-11T19:11:28.113Z,100662.47
2022-09-11T19:14:00.144Z,100666.47
2022-09-11T19:16:28.377Z,100663.94
2022-09-11T19:18:56.229Z,100650.06
2022-09-11T19:21:26.139Z,100672.28
2022-09-11T19:23:57.873Z,100674.19
2022-09-11T19:26:28.332Z,100665.53
2022-09-11T19:29:00.234Z,100665.22
2022-09-11T19:31:30.097Z,100676.19
2022-09-11T19:34:00.978Z,100584.28
2022-09-11T19:36:30.753Z,100668.50
2022-09-11T19:39:00.811Z,100667.84
2022-09-11T19:41:30.588Z,100670.38
2022-09-11T19:44:02.161Z,100634.44
2022-09-11T19:46:31.548Z,100663.31
2022-09-11T19:49:00.944Z,100668.88
2022-09-11T19:51:30.995Z,100670.63
2022-09-11T19:54:02.766Z,100546.00
2022-09-11T19:56:32.919Z,100677.69
2022-09-11T19:59:02.648Z,100580.91
2022-09-11T20:01:31.702Z,100669.13
2022-09-11T20:04:00.997Z,100587.91
2022-09-11T20:06:33.088Z,100660.56
2022-09-11T20:11:49.947Z,100666.66
2022-09-11T20:14:19.248Z,100670.59
2022-09-11T20:16:47.230Z,100597.53
2022-09-11T20:19:17.133Z,100667.72
2022-09-11T20:21:45.033Z,100664.66
2022-09-11T20:24:13.028Z,100668.16
2022-09-11T20:26:41.412Z,100643.72
2022-09-11T20:29:14.109Z,100669.31
2022-09-11T20:31:48.740Z,100668.47
2022-09-11T20:34:17.809Z,100640.09
2022-09-11T20:36:46.136Z,100671.09
2022-09-11T20:39:15.281Z,100669.44
2022-09-11T20:41:43.679Z,100567.25
2022-09-11T20:44:11.961Z,100672.34
2022-09-11T20:46:40.465Z,100665.44
2022-09-11T20:49:10.071Z,100577.06
2022-09-11T20:51:38.035Z,100639.69
2022-09-11T20:54:06.322Z,100667.28
2022-09-11T20:56:34.362Z,100622.25
2022-09-11T20:59:02.424Z,100655.19
2022-09-11T21:01:33.272Z,100659.34
2022-09-11T21:04:03.293Z,100634.34
2022-09-11T21:06:34.706Z,100667.25
2022-09-11T21:09:08.159Z,100638.84
2022-09-11T21:11:37.274Z,100669.72
2022-09-11T21:14:05.763Z,100636.16
2022-09-11T21:16:34.039Z,100639.81
2022-09-11T21:19:03.132Z,100623.50
2022-09-11T21:21:33.805Z,100662.50
2022-09-11T21:24:04.612Z,100668.66
2022-09-11T21:26:34.400Z,100667.63
2022-09-11T21:29:05.732Z,100666.31
2022-09-11T21:31:33.834Z,100660.94
2022-09-11T21:34:01.828Z,100643.47
2022-09-11T21:36:30.279Z,100575.19
2022-09-11T21:38:59.536Z,100648.09
2022-09-11T21:41:27.366Z,100609.84
2022-09-11T21:43:55.290Z,100600.44
2022-09-11T21:46:23.314Z,100639.56
2022-09-11T21:48:51.566Z,100640.53
2022-09-11T21:51:21.139Z,100531.47
2022-09-11T21:53:50.299Z,100629.91
2022-09-11T21:56:21.648Z,100564.38
2022-09-11T21:58:51.222Z,100622.16
2022-09-11T22:01:20.284Z,100639.31
2022-09-11T22:03:48.229Z,100638.50
2022-09-11T22:06:16.696Z,100635.59
2022-09-11T22:08:47.135Z,100640.53
2022-09-11T22:11:15.993Z,100642.66
2022-09-11T22:13:46.694Z,100582.44
2022-09-11T22:16:16.537Z,100621.16
2022-09-11T22:18:47.801Z,100633.72
2022-09-11T22:21:15.772Z,100614.03
2022-09-11T22:23:43.849Z,100525.75
2022-09-11T22:26:14.388Z,100471.75
2022-09-11T22:28:43.611Z,100617.97
2022-09-11T22:31:16.444Z,100635.50
2022-09-11T22:33:44.794Z,100539.44
2022-09-11T22:36:14.879Z,100630.41
2022-09-11T22:38:43.065Z,100614.69
2022-09-11T22:41:11.093Z,100635.78
2022-09-11T22:43:39.275Z,100611.53
2022-09-11T22:46:07.357Z,100633.66
2022-09-11T22:48:37.060Z,100643.28
2022-09-11T22:51:05.503Z,100640.78
2022-09-11T22:53:34.172Z,100571.69
2022-09-11T22:56:02.448Z,100627.47
2022-09-11T22:58:31.502Z,100632.25
2022-09-11T23:01:00.870Z,100539.19
2022-09-11T23:03:29.054Z,100645.53
2022-09-11T23:06:17.334Z,100625.25
2022-09-11T23:08:47.011Z,100641.94
2022-09-11T23:11:16.953Z,100617.78
2022-09-11T23:13:44.940Z,100638.72
2022-09-11T23:16:14.634Z,100643.38
2022-09-11T23:18:43.466Z,100520.28
2022-09-11T23:21:13.876Z,100634.88
2022-09-11T23:23:42.871Z,100636.88
2022-09-11T23:26:11.935Z,100636.13
2022-09-11T23:28:40.321Z,100640.28
2022-09-11T23:31:13.491Z,100644.66
2022-09-11T23:33:41.970Z,100576.63
2022-09-11T23:36:13.372Z,100641.41
2022-09-11T23:38:41.710Z,100650.66
2022-09-11T23:41:09.545Z,100643.53
2022-09-11T23:43:37.519Z,100640.94
2022-09-11T23:46:05.865Z,100573.44
2022-09-11T23:48:33.914Z,100627.81
2022-09-11T23:51:02.123Z,100652.81
2022-09-11T23:53:31.576Z,100639.25
2022-09-11T23:55:59.686Z,100646.63
2022-09-11T23:58:27.628Z,100622.75
